Landing, New Jersey
Current Conditions -  °F | °C
As of 3:45 PM on Thursday 29 Jan 2015 (Local Time) from KMMU Reporting Station
Overcast Overcast  
Wind Chill: 23°   Ceiling: 11000
Heat Index: 30°   Visibility: 10mi
Dew Point: 10°   Wind: 8mph
Humidity: 44%   Direction: 170°S
Pressure: 30.16"   Gusts: NA
Location:  40.91°N, 74.66°W
Report Text: KMMU 292045Z 17007KT 10SM OVC110 M01/M12 A3016
Loading
Personal Weather Stations






























Interactive Weather Map New forecast layout! Learn more

10-Day Weather Forecast

Advertisements
Track Severe Weather on mobile